createdAt,value
2016-07-11T00:00:34.047Z,0
2016-07-11T00:01:34.138Z,0
2016-07-11T00:02:34.068Z,0
2016-07-11T00:03:34.093Z,0
2016-07-11T00:04:34.106Z,0
2016-07-11T00:05:34.105Z,0
2016-07-11T00:06:34.096Z,0
2016-07-11T00:07:34.068Z,0
2016-07-11T00:08:34.104Z,0
2016-07-11T00:09:34.077Z,0
2016-07-11T00:10:34.068Z,0
2016-07-11T00:11:34.067Z,0
2016-07-11T00:12:34.090Z,0
2016-07-11T00:13:34.060Z,0
2016-07-11T00:14:34.112Z,0
2016-07-11T00:15:34.150Z,0
2016-07-11T00:16:34.062Z,0
2016-07-11T00:17:34.734Z,0
2016-07-11T00:18:34.078Z,0
2016-07-11T00:19:34.066Z,0
2016-07-11T00:20:34.058Z,0
2016-07-11T00:21:34.096Z,0
2016-07-11T00:22:34.071Z,0
2016-07-11T00:23:34.078Z,0
2016-07-11T00:24:34.096Z,0
2016-07-11T00:25:34.119Z,0
2016-07-11T00:26:34.848Z,0
2016-07-11T00:27:34.085Z,0
2016-07-11T00:28:50.979Z,0
2016-07-11T00:29:34.088Z,0
2016-07-11T00:30:34.075Z,0
2016-07-11T00:31:34.136Z,0
2016-07-11T00:32:34.116Z,0
2016-07-11T00:33:34.180Z,0
2016-07-11T00:34:34.053Z,0
2016-07-11T00:35:34.053Z,0
2016-07-11T00:36:34.096Z,0
2016-07-11T00:37:34.102Z,0
2016-07-11T00:38:34.078Z,0
2016-07-11T00:39:34.090Z,0
2016-07-11T00:40:34.108Z,0
2016-07-11T00:41:34.083Z,0
2016-07-11T00:42:34.045Z,0
2016-07-11T00:43:34.097Z,0
2016-07-11T00:44:34.133Z,0
2016-07-11T00:45:34.115Z,0
2016-07-11T00:46:34.106Z,0
2016-07-11T00:47:34.141Z,0
2016-07-11T00:48:34.090Z,0
2016-07-11T00:49:34.129Z,0
2016-07-11T00:50:34.118Z,0
2016-07-11T00:51:34.103Z,0
2016-07-11T00:52:34.160Z,0
2016-07-11T00:53:34.093Z,0
2016-07-11T00:54:39.545Z,0
2016-07-11T00:55:35.455Z,0
2016-07-11T00:56:34.158Z,0
2016-07-11T00:57:34.077Z,0
2016-07-11T00:58:34.135Z,0
2016-07-11T00:59:34.090Z,0
2016-07-11T01:00:34.280Z,0
2016-07-11T01:01:38.633Z,0
2016-07-11T01:02:34.093Z,0
2016-07-11T01:03:34.123Z,0
2016-07-11T01:04:37.171Z,0
2016-07-11T01:05:36.281Z,0
2016-07-11T01:06:34.116Z,0
2016-07-11T01:07:34.562Z,0
2016-07-11T01:08:34.147Z,0
2016-07-11T01:09:34.134Z,0
2016-07-11T01:10:34.128Z,0
2016-07-11T01:11:34.147Z,0
2016-07-11T01:12:54.305Z,0
2016-07-11T01:13:34.170Z,0
2016-07-11T01:14:34.068Z,0
2016-07-11T01:15:34.093Z,0
2016-07-11T01:16:34.088Z,0
2016-07-11T01:17:34.103Z,0
2016-07-11T01:18:34.100Z,0
2016-07-11T01:19:34.912Z,0
2016-07-11T01:20:35.423Z,0
2016-07-11T01:21:34.159Z,0
2016-07-11T01:22:34.144Z,0
2016-07-11T01:23:34.113Z,0
2016-07-11T01:24:34.800Z,0
2016-07-11T01:25:34.140Z,0
2016-07-11T01:26:34.096Z,0
2016-07-11T01:27:34.136Z,0
2016-07-11T01:28:34.118Z,0
2016-07-11T01:29:34.124Z,0
2016-07-11T01:30:34.141Z,0
2016-07-11T01:31:34.123Z,0
2016-07-11T01:32:34.669Z,0
2016-07-11T01:33:34.157Z,0
2016-07-11T01:34:34.132Z,0
2016-07-11T01:35:34.089Z,0
2016-07-11T01:36:34.107Z,0
2016-07-11T01:37:34.143Z,0
2016-07-11T01:38:34.121Z,0
2016-07-11T01:39:34.111Z,0
2016-07-11T01:40:34.186Z,0
2016-07-11T01:41:34.529Z,0
2016-07-11T01:42:34.110Z,0
2016-07-11T01:43:34.111Z,0
2016-07-11T01:44:34.102Z,0
2016-07-11T01:45:34.174Z,0
2016-07-11T01:46:34.107Z,0
2016-07-11T01:47:34.163Z,0
2016-07-11T01:48:34.156Z,0
2016-07-11T01:49:34.131Z,0
2016-07-11T01:50:34.163Z,0
2016-07-11T01:51:34.127Z,0
2016-07-11T01:52:34.203Z,0
2016-07-11T01:53:34.101Z,0
2016-07-11T01:54:34.103Z,0
2016-07-11T01:55:34.430Z,0
2016-07-11T01:56:34.449Z,0
2016-07-11T01:57:34.123Z,0
2016-07-11T01:58:34.134Z,0
2016-07-11T01:59:34.141Z,0
2016-07-11T02:00:34.155Z,0
2016-07-11T02:01:34.111Z,0
2016-07-11T02:02:37.489Z,0
2016-07-11T02:03:34.134Z,0
2016-07-11T02:04:34.146Z,0
2016-07-11T02:05:34.294Z,0
2016-07-11T02:06:34.303Z,0
2016-07-11T02:07:34.128Z,0
2016-07-11T02:08:34.162Z,0
2016-07-11T02:09:34.191Z,0
2016-07-11T02:10:34.102Z,0
2016-07-11T02:11:34.125Z,0
2016-07-11T02:12:34.140Z,0
2016-07-11T02:13:34.110Z,0
2016-07-11T02:14:34.153Z,0
2016-07-11T02:15:34.133Z,0
2016-07-11T02:16:34.153Z,0
2016-07-11T02:17:34.223Z,0
2016-07-11T02:18:34.156Z,0
2016-07-11T02:19:34.162Z,0
2016-07-11T02:20:34.260Z,0
2016-07-11T02:21:34.157Z,0
2016-07-11T02:22:34.116Z,0
2016-07-11T02:23:34.702Z,0
2016-07-11T02:24:34.532Z,0
2016-07-11T02:25:34.130Z,0
2016-07-11T02:26:34.567Z,0
2016-07-11T02:27:34.318Z,0
2016-07-11T02:28:34.368Z,0
2016-07-11T02:29:34.374Z,0
2016-07-11T02:30:34.643Z,0
2016-07-11T02:31:34.168Z,0
2016-07-11T02:32:34.161Z,0
2016-07-11T02:33:34.140Z,0
2016-07-11T02:34:34.138Z,0
2016-07-11T02:35:34.144Z,0
2016-07-11T02:36:35.301Z,0
2016-07-11T02:37:34.175Z,0
2016-07-11T02:38:34.174Z,0
2016-07-11T02:39:34.178Z,0
2016-07-11T02:40:34.163Z,0
2016-07-11T02:41:34.417Z,0
2016-07-11T02:42:34.237Z,0
2016-07-11T02:43:34.168Z,0
2016-07-11T02:44:35.318Z,0
2016-07-11T02:45:37.339Z,0
2016-07-11T02:46:34.249Z,0
2016-07-11T02:47:34.146Z,0
2016-07-11T02:48:34.159Z,0
2016-07-11T02:49:34.208Z,0
2016-07-11T02:50:34.142Z,0
2016-07-11T02:51:34.310Z,0
2016-07-11T02:52:34.456Z,0
2016-07-11T02:53:36.724Z,0
2016-07-11T02:54:34.172Z,0
2016-07-11T02:55:34.520Z,0
2016-07-11T02:56:35.335Z,0
2016-07-11T02:57:34.741Z,0
2016-07-11T02:58:34.327Z,0
2016-07-11T02:59:34.778Z,0
2016-07-11T03:00:37.600Z,0
2016-07-11T03:01:34.704Z,0
2016-07-11T03:13:50.913Z,0
2016-07-11T03:14:50.891Z,0
2016-07-11T03:15:50.915Z,0
2016-07-11T03:16:52.866Z,0
2016-07-11T03:17:50.883Z,0
2016-07-11T03:18:50.963Z,0
2016-07-11T03:19:50.906Z,0
2016-07-11T03:20:50.890Z,0
2016-07-11T03:21:50.918Z,0
2016-07-11T03:22:50.918Z,0
2016-07-11T03:23:50.916Z,0
2016-07-11T03:24:50.873Z,0
2016-07-11T03:25:52.943Z,0
2016-07-11T03:26:51.077Z,0
2016-07-11T03:27:51.487Z,0
2016-07-11T03:28:51.187Z,0
2016-07-11T03:29:50.937Z,0
2016-07-11T03:30:50.961Z,0
2016-07-11T03:31:50.997Z,0
2016-07-11T03:32:51.180Z,0
2016-07-11T03:33:50.912Z,0
2016-07-11T03:34:50.928Z,0
2016-07-11T03:35:51.367Z,5
2016-07-11T03:36:51.428Z,5
2016-07-11T03:37:50.954Z,5
2016-07-11T03:38:50.894Z,5
2016-07-11T03:39:51.072Z,5
2016-07-11T03:40:51.213Z,5
2016-07-11T03:41:51.369Z,5
2016-07-11T03:42:50.886Z,5
2016-07-11T03:43:50.939Z,5
2016-07-11T03:44:50.974Z,5
2016-07-11T03:45:50.921Z,5
2016-07-11T03:46:50.975Z,5
2016-07-11T03:47:50.892Z,10
2016-07-11T03:48:51.110Z,10
2016-07-11T03:49:51.350Z,10
2016-07-11T03:50:55.334Z,10
2016-07-11T03:51:51.102Z,10
2016-07-11T03:52:50.951Z,10
2016-07-11T03:53:51.442Z,10
2016-07-11T03:54:50.895Z,5
2016-07-11T03:55:50.976Z,10
2016-07-11T03:56:50.925Z,10
2016-07-11T03:57:50.901Z,15
2016-07-11T03:58:51.573Z,15
2016-07-11T03:59:50.974Z,15
2016-07-11T04:00:50.934Z,15
2016-07-11T04:01:51.014Z,15
2016-07-11T04:02:50.912Z,15
2016-07-11T04:03:50.967Z,15
2016-07-11T04:04:50.959Z,15
2016-07-11T04:05:50.933Z,10
2016-07-11T04:06:51.560Z,10
2016-07-11T04:07:50.932Z,10
2016-07-11T04:08:50.943Z,10
2016-07-11T04:09:51.094Z,15
2016-07-11T04:10:50.958Z,15
2016-07-11T04:11:50.933Z,20
2016-07-11T04:12:51.013Z,20
2016-07-11T04:13:50.965Z,20
2016-07-11T04:14:50.951Z,20
2016-07-11T04:15:50.960Z,20
2016-07-11T04:16:50.922Z,20
2016-07-11T04:17:51.858Z,20
2016-07-11T04:18:51.005Z,20
2016-07-11T04:19:50.931Z,15
2016-07-11T04:20:50.940Z,15
2016-07-11T04:21:50.884Z,15
2016-07-11T04:22:51.079Z,20
2016-07-11T04:23:50.936Z,20
2016-07-11T04:24:50.942Z,20
2016-07-11T04:25:50.961Z,20
2016-07-11T04:26:50.908Z,20
2016-07-11T04:27:50.927Z,25
2016-07-11T04:28:50.952Z,25
2016-07-11T04:29:50.980Z,30
2016-07-11T04:30:51.136Z,25
2016-07-11T04:31:50.914Z,30
2016-07-11T04:32:50.935Z,30
2016-07-11T04:33:50.937Z,35
2016-07-11T04:34:51.006Z,40
2016-07-11T04:35:50.932Z,40
2016-07-11T04:36:50.944Z,40
2016-07-11T04:37:51.135Z,35
2016-07-11T04:38:51.143Z,35
2016-07-11T04:39:52.255Z,40
2016-07-11T04:40:50.926Z,40
2016-07-11T04:41:52.190Z,40
2016-07-11T04:42:50.946Z,40
2016-07-11T04:43:50.950Z,40
2016-07-11T04:44:50.898Z,40
2016-07-11T04:45:52.027Z,40
2016-07-11T04:46:50.941Z,40
2016-07-11T04:47:50.955Z,40
2016-07-11T04:48:50.964Z,40
2016-07-11T04:49:50.940Z,45
2016-07-11T04:50:50.979Z,45
2016-07-11T04:51:50.971Z,45
2016-07-11T04:52:50.959Z,45
2016-07-11T04:53:51.331Z,45
2016-07-11T04:54:50.941Z,45
2016-07-11T04:55:50.980Z,50
2016-07-11T04:56:50.992Z,55
2016-07-11T04:57:50.938Z,55
2016-07-11T04:58:50.941Z,55
2016-07-11T04:59:51.025Z,55
2016-07-11T05:00:50.994Z,50
2016-07-11T05:01:50.960Z,50
2016-07-11T05:02:50.897Z,45
2016-07-11T05:03:50.967Z,45
2016-07-11T05:04:50.959Z,45
2016-07-11T05:05:51.027Z,45
2016-07-11T05:06:50.962Z,45
2016-07-11T05:07:51.217Z,45
2016-07-11T05:08:51.655Z,45
2016-07-11T05:09:51.017Z,45
2016-07-11T05:10:50.981Z,50
2016-07-11T05:11:51.475Z,55
2016-07-11T05:12:50.921Z,55
2016-07-11T05:13:50.893Z,60
2016-07-11T05:14:51.022Z,55
2016-07-11T05:15:50.971Z,50
2016-07-11T05:16:54.888Z,50
2016-07-11T05:17:50.986Z,50
2016-07-11T05:18:50.983Z,55
2016-07-11T05:19:51.638Z,55
2016-07-11T05:20:50.955Z,55
2016-07-11T05:21:51.121Z,55
2016-07-11T05:22:51.101Z,60
2016-07-11T05:23:51.077Z,60
2016-07-11T05:24:50.964Z,55
2016-07-11T05:25:51.561Z,55
2016-07-11T05:26:51.016Z,50
2016-07-11T05:27:50.989Z,40
2016-07-11T05:28:50.949Z,40
2016-07-11T05:29:51.162Z,45
2016-07-11T05:30:51.092Z,50
2016-07-11T05:31:53.268Z,50
2016-07-11T05:32:53.413Z,55
2016-07-11T05:33:50.935Z,55
2016-07-11T05:34:51.272Z,60
2016-07-11T05:35:51.326Z,55
2016-07-11T05:36:51.170Z,55
2016-07-11T05:37:51.063Z,55
2016-07-11T05:38:54.383Z,60
2016-07-11T05:39:51.466Z,65
2016-07-11T05:40:52.492Z,70
2016-07-11T05:41:51.113Z,75
2016-07-11T05:42:51.022Z,80
2016-07-11T05:43:55.002Z,85
2016-07-11T05:44:51.037Z,85
2016-07-11T05:45:51.819Z,85
2016-07-11T05:46:51.134Z,80
2016-07-11T05:47:51.006Z,85
2016-07-11T05:48:51.017Z,85
2016-07-11T05:49:51.248Z,90
2016-07-11T05:50:51.265Z,85
2016-07-11T05:51:52.241Z,80
2016-07-11T05:52:51.045Z,75
2016-07-11T05:53:50.971Z,70
2016-07-11T05:54:51.028Z,85
2016-07-11T05:55:54.322Z,95
2016-07-11T05:57:10.081Z,95
2016-07-11T05:57:50.975Z,90
2016-07-11T05:58:52.668Z,85
2016-07-11T06:00:04.557Z,80
2016-07-11T06:01:10.038Z,80
2016-07-11T06:01:52.525Z,85
2016-07-11T06:02:58.329Z,95
2016-07-11T06:03:51.240Z,95
2016-07-11T06:04:52.465Z,100
2016-07-11T06:05:51.267Z,105
2016-07-11T06:07:22.773Z,105
2016-07-11T06:07:51.414Z,105
2016-07-11T06:08:51.022Z,105
2016-07-11T06:09:51.073Z,105
2016-07-11T06:10:51.547Z,110
2016-07-11T06:11:54.813Z,115
2016-07-11T06:12:51.215Z,115
2016-07-11T06:13:51.066Z,110
2016-07-11T06:14:51.063Z,110
2016-07-11T06:15:51.704Z,115
2016-07-11T06:16:51.358Z,120
2016-07-11T06:17:51.180Z,130
2016-07-11T06:18:51.501Z,140
2016-07-11T06:19:51.475Z,155
2016-07-11T06:20:51.798Z,160
2016-07-11T06:21:51.068Z,150
2016-07-11T06:22:53.501Z,160
2016-07-11T06:23:51.385Z,180
2016-07-11T06:24:51.129Z,185
2016-07-11T06:25:54.519Z,185
2016-07-11T06:26:51.034Z,185
2016-07-11T06:27:51.204Z,175
2016-07-11T06:28:51.129Z,150
2016-07-11T06:29:54.479Z,135
2016-07-11T06:30:51.210Z,120
2016-07-11T06:31:51.190Z,120
2016-07-11T06:32:51.304Z,120
2016-07-11T06:33:51.352Z,120
2016-07-11T06:34:51.662Z,120
2016-07-11T06:35:51.287Z,120
2016-07-11T06:36:51.312Z,135
2016-07-11T06:37:51.122Z,160
2016-07-11T06:38:51.028Z,165
2016-07-11T06:39:55.882Z,165
2016-07-11T06:40:51.060Z,165
2016-07-11T06:41:51.127Z,155
2016-07-11T06:42:51.409Z,145
2016-07-11T06:43:51.113Z,140
2016-07-11T06:45:05.164Z,140
2016-07-11T06:45:51.097Z,145
2016-07-11T06:46:53.038Z,145
2016-07-11T06:48:03.242Z,140
2016-07-11T06:49:05.344Z,145
2016-07-11T06:50:38.888Z,170
2016-07-11T06:50:55.426Z,170
2016-07-11T06:51:57.752Z,185
2016-07-11T06:52:55.697Z,195
2016-07-11T06:53:55.945Z,220
2016-07-11T06:54:55.772Z,240
2016-07-11T06:55:55.550Z,250
2016-07-11T06:56:55.500Z,280
2016-07-11T06:57:55.486Z,305
2016-07-11T06:58:59.883Z,340
2016-07-11T06:59:55.553Z,365
2016-07-11T07:00:58.536Z,380
2016-07-11T07:01:55.824Z,380
2016-07-11T07:02:56.067Z,365
2016-07-11T07:03:55.402Z,355
2016-07-11T07:04:55.601Z,335
2016-07-11T07:05:55.445Z,310
2016-07-11T07:06:55.870Z,305
2016-07-11T07:07:55.402Z,305
2016-07-11T07:08:55.495Z,290
2016-07-11T07:09:55.457Z,290
2016-07-11T07:10:55.416Z,305
2016-07-11T07:11:55.412Z,340
2016-07-11T07:12:57.844Z,355
2016-07-11T07:13:55.370Z,330
2016-07-11T07:14:56.240Z,300
2016-07-11T07:15:55.619Z,265
2016-07-11T07:16:55.609Z,250
2016-07-11T07:17:55.467Z,240
2016-07-11T07:18:55.469Z,230
2016-07-11T07:20:12.543Z,225
2016-07-11T07:21:05.358Z,220
2016-07-11T07:21:58.813Z,225
2016-07-11T07:23:01.298Z,235
2016-07-11T07:24:00.598Z,230
2016-07-11T07:24:55.411Z,235
2016-07-11T07:25:55.391Z,240
2016-07-11T07:26:55.802Z,235
2016-07-11T07:27:55.539Z,225
2016-07-11T07:29:04.005Z,210
2016-07-11T07:29:55.428Z,205
2016-07-11T07:30:55.475Z,215
2016-07-11T07:31:55.435Z,220
2016-07-11T07:33:35.481Z,240
2016-07-11T07:33:56.565Z,250
2016-07-11T07:34:56.779Z,295
2016-07-11T07:35:55.685Z,330
2016-07-11T07:36:56.326Z,360
2016-07-11T07:37:55.595Z,385
2016-07-11T07:38:55.702Z,410
2016-07-11T07:39:56.090Z,410
2016-07-11T07:41:00.633Z,395
2016-07-11T07:41:55.597Z,340
2016-07-11T07:42:55.570Z,315
2016-07-11T07:43:55.554Z,325
2016-07-11T07:44:55.424Z,305
2016-07-11T07:45:55.474Z,305
2016-07-11T07:46:55.542Z,310
2016-07-11T07:47:55.517Z,315
2016-07-11T08:01:00.658Z,575
2016-07-11T08:01:19.110Z,760
2016-07-11T08:02:22.897Z,1355
2016-07-11T08:03:28.231Z,1430
2016-07-11T08:04:37.636Z,550
2016-07-11T08:05:17.252Z,590
2016-07-11T08:06:32.608Z,885
2016-07-11T08:07:17.137Z,1455
2016-07-11T08:08:19.460Z,1500
2016-07-11T08:09:24.807Z,415
2016-07-11T08:10:17.205Z,380
2016-07-11T08:11:22.517Z,365
2016-07-11T08:12:34.408Z,360
2016-07-11T08:14:24.131Z,325
2016-07-11T08:14:52.519Z,325
2016-07-11T08:15:52.131Z,330
2016-07-11T08:16:53.195Z,340
2016-07-11T08:17:51.536Z,345
2016-07-11T08:18:53.413Z,365
2016-07-11T08:19:51.642Z,385
2016-07-11T08:20:51.627Z,390
2016-07-11T08:21:54.942Z,390
2016-07-11T08:22:51.524Z,410
2016-07-11T08:23:52.006Z,535
2016-07-11T08:24:54.894Z,910
2016-07-11T08:25:52.323Z,1310
2016-07-11T08:26:54.288Z,1120
2016-07-11T08:28:00.097Z,1490
2016-07-11T08:29:00.016Z,1740
2016-07-11T08:29:51.743Z,780
2016-07-11T08:30:58.939Z,1670
2016-07-11T08:31:59.128Z,755
2016-07-11T08:33:06.392Z,640
2016-07-11T08:33:54.489Z,870
2016-07-11T08:34:54.581Z,940
2016-07-11T08:35:54.643Z,715
2016-07-11T08:37:45.100Z,545
2016-07-11T08:38:15.319Z,530
2016-07-11T08:39:42.645Z,470
2016-07-11T08:40:06.614Z,455
2016-07-11T08:41:03.572Z,500
2016-07-11T08:42:02.528Z,505
2016-07-11T08:43:16.528Z,520
2016-07-11T08:44:02.172Z,460
2016-07-11T08:45:05.767Z,620
2016-07-11T08:46:03.744Z,550
2016-07-11T08:47:48.647Z,570
2016-07-11T08:48:05.820Z,755
2016-07-11T08:49:11.298Z,1010
2016-07-11T08:50:06.196Z,2165
2016-07-11T08:51:31.967Z,895
2016-07-11T08:52:06.860Z,700
2016-07-11T08:53:10.501Z,535
2016-07-11T08:54:22.974Z,530
2016-07-11T08:57:05.890Z,530
2016-07-11T08:58:26.867Z,785
2016-07-11T08:58:50.333Z,700
2016-07-11T09:00:31.851Z,590
2016-07-11T09:00:53.551Z,640
2016-07-11T09:02:37.539Z,805
2016-07-11T09:03:09.623Z,960
2016-07-11T09:04:32.492Z,1080
2016-07-11T09:05:02.500Z,830
2016-07-11T09:06:00.390Z,1935
2016-07-11T09:06:55.326Z,2175
2016-07-11T09:08:01.803Z,2190
2016-07-11T09:08:54.964Z,2190
2016-07-11T09:09:56.433Z,2090
2016-07-11T09:10:56.425Z,2180
2016-07-11T09:12:01.287Z,2175
2016-07-11T09:12:57.201Z,2175
2016-07-11T09:14:00.388Z,2200
2016-07-11T09:15:49.594Z,820
2016-07-11T09:16:33.184Z,2465
2016-07-11T09:17:16.202Z,1560
2016-07-11T09:18:28.461Z,1370
2016-07-11T09:19:09.258Z,485
2016-07-11T09:20:07.873Z,365
2016-07-11T09:21:09.134Z,345
2016-07-11T09:22:19.627Z,995
2016-07-11T09:23:14.075Z,1615
2016-07-11T09:26:28.033Z,400
2016-07-11T09:27:12.241Z,2390
2016-07-11T09:27:46.711Z,2415
2016-07-11T09:29:06.515Z,480
2016-07-11T09:30:12.689Z,480
2016-07-11T09:30:46.546Z,1690
2016-07-11T09:31:46.844Z,635
2016-07-11T09:32:52.191Z,645
2016-07-11T09:34:16.757Z,470
2016-07-11T09:35:07.879Z,580
2016-07-11T09:36:32.714Z,500
2016-07-11T09:37:08.564Z,345
2016-07-11T09:38:09.487Z,320
2016-07-11T09:39:08.378Z,350
2016-07-11T09:40:29.453Z,400
2016-07-11T09:41:07.384Z,1050
2016-07-11T09:42:07.534Z,2290
2016-07-11T09:43:07.412Z,2145
2016-07-11T09:44:11.126Z,510
2016-07-11T09:45:08.971Z,2340
2016-07-11T09:46:37.996Z,400
2016-07-11T09:47:18.260Z,2295
2016-07-11T09:48:11.299Z,485
2016-07-11T09:49:20.026Z,2150
2016-07-11T09:50:08.330Z,2035
2016-07-11T09:51:07.646Z,2050
2016-07-11T09:52:15.586Z,810
2016-07-11T09:53:16.638Z,2315
2016-07-11T09:54:15.562Z,1270
2016-07-11T09:56:03.631Z,2235
2016-07-11T09:56:22.407Z,1530
2016-07-11T09:57:26.116Z,1860
2016-07-11T09:58:25.598Z,2095
2016-07-11T09:59:25.754Z,2075
2016-07-11T10:00:29.013Z,2085
2016-07-11T10:01:23.462Z,2180
2016-07-11T10:02:20.922Z,2145
2016-07-11T10:03:27.352Z,2115
2016-07-11T10:04:21.460Z,2445
2016-07-11T10:05:20.925Z,1790
2016-07-11T10:06:28.029Z,2035
2016-07-11T10:07:21.975Z,2490
2016-07-11T10:08:21.269Z,450
2016-07-11T10:09:21.791Z,2300
2016-07-11T10:10:21.024Z,2270
2016-07-11T10:11:21.291Z,2305
2016-07-11T10:12:22.583Z,650
2016-07-11T10:13:23.134Z,340
2016-07-11T10:14:21.783Z,330
2016-07-11T10:15:24.011Z,335
2016-07-11T10:16:21.755Z,2265
2016-07-11T10:17:26.964Z,2290
2016-07-11T10:18:27.896Z,2385
2016-07-11T10:19:22.273Z,475
2016-07-11T10:20:22.384Z,565
2016-07-11T10:21:22.186Z,2320
2016-07-11T10:22:22.955Z,580
2016-07-11T10:23:23.226Z,410
2016-07-11T10:24:22.301Z,365
2016-07-11T10:25:22.125Z,395
2016-07-11T10:26:30.929Z,1575
2016-07-11T10:27:39.330Z,495
2016-07-11T10:28:22.826Z,2255
2016-07-11T10:29:21.971Z,2305
2016-07-11T10:30:22.373Z,455
2016-07-11T10:31:26.858Z,2330
2016-07-11T10:32:38.764Z,2340
2016-07-11T10:33:23.349Z,2235
2016-07-11T10:34:25.309Z,2165
2016-07-11T10:35:21.542Z,2245
2016-07-11T10:36:23.649Z,2310
2016-07-11T10:46:35.059Z,1945
2016-07-11T10:46:53.390Z,2535
2016-07-11T10:47:57.598Z,2505
2016-07-11T10:48:58.474Z,1465
2016-07-11T10:49:56.353Z,700
2016-07-11T10:50:53.220Z,445
2016-07-11T11:01:03.916Z,405
2016-07-11T11:01:21.895Z,400
2016-07-11T11:02:23.865Z,2165
2016-07-11T11:03:24.861Z,2205
2016-07-11T11:04:34.861Z,555
2016-07-11T11:05:29.812Z,2185
2016-07-11T11:06:25.230Z,2260
2016-07-11T11:07:22.364Z,325
2016-07-11T11:08:25.053Z,2285
2016-07-11T11:09:28.697Z,1760
2016-07-11T11:10:50.864Z,2295
2016-07-11T11:11:25.324Z,2460
2016-07-11T11:12:21.738Z,2575
2016-07-11T11:13:23.097Z,465
2016-07-11T11:14:23.431Z,2785
2016-07-11T11:15:24.780Z,970
2016-07-11T11:16:21.938Z,2780
2016-07-11T11:17:27.185Z,2660
2016-07-11T11:18:21.917Z,2520
2016-07-11T11:19:29.629Z,2355
2016-07-11T11:20:30.338Z,325
2016-07-11T11:21:49.748Z,1040
2016-07-11T11:22:33.134Z,1725
2016-07-11T11:24:32.212Z,1240
2016-07-11T11:24:50.554Z,1200
2016-07-11T11:25:53.690Z,1210
2016-07-11T11:27:31.062Z,520
2016-07-11T11:27:50.500Z,480
2016-07-11T11:28:58.080Z,1380
2016-07-11T11:29:51.312Z,1175
2016-07-11T11:30:50.700Z,1300
2016-07-11T11:31:50.450Z,1310
2016-07-11T11:33:05.930Z,1310
2016-07-11T11:34:08.873Z,340
2016-07-11T11:34:50.576Z,1310
2016-07-11T11:35:54.376Z,440
2016-07-11T11:36:53.413Z,385
2016-07-11T11:37:50.767Z,465
2016-07-11T11:39:00.237Z,1850
2016-07-11T11:39:50.034Z,2325
2016-07-11T11:40:52.062Z,355
2016-07-11T11:41:50.423Z,1965
2016-07-11T11:42:52.642Z,375
2016-07-11T11:43:51.970Z,305
2016-07-11T11:44:50.547Z,960
2016-07-11T11:46:14.547Z,370
2016-07-11T11:46:51.411Z,355
2016-07-11T11:48:04.096Z,280
2016-07-11T11:49:12.820Z,270
2016-07-11T11:50:06.938Z,1155
2016-07-11T11:50:53.955Z,415
2016-07-11T11:51:50.889Z,385
2016-07-11T11:52:59.434Z,295
2016-07-11T11:54:06.942Z,490
2016-07-11T11:54:52.467Z,1360
2016-07-11T11:56:00.670Z,685
2016-07-11T11:56:50.418Z,2460
2016-07-11T11:57:50.231Z,990
2016-07-11T11:58:50.947Z,290
2016-07-11T11:59:55.063Z,270
2016-07-11T12:00:51.578Z,270
2016-07-11T12:01:50.564Z,365
2016-07-11T12:02:52.797Z,2365
2016-07-11T12:03:50.911Z,2315
2016-07-11T12:04:49.471Z,2335
2016-07-11T12:05:53.538Z,2210
2016-07-11T12:06:49.438Z,2245
2016-07-11T12:07:49.658Z,575
2016-07-11T12:08:49.579Z,480
2016-07-11T12:09:49.514Z,2055
2016-07-11T12:10:52.135Z,2010
2016-07-11T12:11:50.550Z,2125
2016-07-11T12:12:50.895Z,1550
2016-07-11T12:13:51.611Z,2245
2016-07-11T12:14:50.601Z,1380
2016-07-11T12:15:55.746Z,2415
2016-07-11T12:16:52.866Z,405
2016-07-11T12:17:53.831Z,1310
2016-07-11T12:18:51.222Z,325
2016-07-11T12:20:15.991Z,340
2016-07-11T12:20:51.341Z,425
2016-07-11T12:21:52.082Z,315
2016-07-11T12:22:51.492Z,235
2016-07-11T12:23:49.715Z,635
2016-07-11T12:24:49.716Z,2370
2016-07-11T12:25:50.198Z,2255
2016-07-11T12:26:49.616Z,530
2016-07-11T12:27:52.255Z,320
2016-07-11T12:28:49.666Z,395
2016-07-11T12:29:49.635Z,300
2016-07-11T12:30:49.788Z,2085
2016-07-11T12:31:50.792Z,2400
2016-07-11T12:32:49.657Z,1625
2016-07-11T12:33:49.952Z,475
2016-07-11T12:34:49.477Z,410
2016-07-11T12:35:49.982Z,370
2016-07-11T12:36:49.806Z,690
2016-07-11T12:37:51.652Z,335
2016-07-11T12:39:05.384Z,2335
2016-07-11T12:39:49.781Z,960
2016-07-11T12:40:49.500Z,870
2016-07-11T12:41:49.501Z,2170
2016-07-11T12:42:50.757Z,2150
2016-07-11T12:43:52.660Z,2200
2016-07-11T12:45:04.460Z,2270
2016-07-11T12:45:56.265Z,2265
2016-07-11T12:46:50.376Z,2235
2016-07-11T12:47:51.273Z,2200
2016-07-11T12:48:49.680Z,2175
2016-07-11T12:50:25.061Z,875
2016-07-11T12:51:04.787Z,1275
2016-07-11T12:51:51.676Z,2125
2016-07-11T12:53:00.212Z,2060
2016-07-11T12:53:50.141Z,2055
2016-07-11T12:54:49.656Z,2135
2016-07-11T12:55:55.105Z,2095
2016-07-11T12:56:49.661Z,1810
2016-07-11T12:57:58.594Z,1925
2016-07-11T12:58:49.638Z,2045
2016-07-11T12:59:50.170Z,1990
2016-07-11T13:00:50.879Z,320
2016-07-11T13:01:50.847Z,360
2016-07-11T13:02:49.881Z,295
2016-07-11T13:03:50.978Z,245
2016-07-11T13:04:49.706Z,340
2016-07-11T13:05:49.594Z,505
2016-07-11T13:06:49.704Z,1065
2016-07-11T13:07:51.814Z,435
2016-07-11T13:08:50.369Z,420
2016-07-11T13:10:08.546Z,360
2016-07-11T13:10:49.625Z,365
2016-07-11T13:11:51.712Z,520
2016-07-11T13:13:26.383Z,2295
2016-07-11T13:13:54.710Z,1610
2016-07-11T13:14:50.042Z,2175
2016-07-11T13:15:53.122Z,1975
2016-07-11T13:17:00.993Z,1910
2016-07-11T13:26:53.952Z,2080
2016-07-11T13:27:19.340Z,1615
2016-07-11T13:28:28.282Z,575
2016-07-11T13:29:20.206Z,2115
2016-07-11T13:30:20.667Z,665
2016-07-11T13:31:45.167Z,2020
2016-07-11T13:32:21.148Z,1940
2016-07-11T13:33:20.280Z,1625
2016-07-11T13:34:24.475Z,1600
2016-07-11T13:35:19.325Z,1630
2016-07-11T13:36:20.488Z,1635
2016-07-11T13:37:19.475Z,700
2016-07-11T13:38:19.970Z,875
2016-07-11T13:39:20.088Z,225
2016-07-11T13:40:19.254Z,245
2016-07-11T13:41:19.269Z,255
2016-07-11T13:42:19.384Z,280
2016-07-11T13:43:19.711Z,985
2016-07-11T13:44:19.945Z,450
2016-07-11T13:45:19.926Z,600
2016-07-11T13:46:19.557Z,645
2016-07-11T13:47:19.615Z,475
2016-07-11T13:48:25.090Z,465
2016-07-11T13:49:19.315Z,455
2016-07-11T13:50:19.503Z,595
2016-07-11T13:51:21.733Z,735
2016-07-11T13:52:19.526Z,750
2016-07-11T13:53:25.079Z,1665
2016-07-11T13:54:19.626Z,1135
2016-07-11T13:55:41.627Z,1705
2016-07-11T13:57:34.137Z,645
2016-07-11T13:58:22.503Z,295
2016-07-11T13:59:19.594Z,340
2016-07-11T14:00:27.582Z,250
2016-07-11T14:01:22.642Z,270
2016-07-11T14:02:49.704Z,300
2016-07-11T14:04:52.252Z,1615
2016-07-11T14:05:30.874Z,335
2016-07-11T14:06:29.232Z,1555
2016-07-11T14:07:53.591Z,785
2016-07-11T14:08:25.785Z,465
2016-07-11T14:09:24.563Z,330
2016-07-11T14:10:24.486Z,280
2016-07-11T14:11:24.514Z,250
2016-07-11T14:12:24.674Z,235
2016-07-11T14:13:33.888Z,230
2016-07-11T14:14:24.481Z,265
2016-07-11T14:15:24.852Z,255
2016-07-11T14:16:24.504Z,275
2016-07-11T14:17:45.859Z,265
2016-07-11T14:19:24.440Z,245
2016-07-11T14:20:25.221Z,230
2016-07-11T14:21:24.446Z,250
2016-07-11T14:22:24.487Z,260
2016-07-11T14:23:34.844Z,250
2016-07-11T14:24:24.508Z,205
2016-07-11T14:25:24.521Z,200
2016-07-11T14:26:24.467Z,210
2016-07-11T14:27:24.477Z,260
2016-07-11T14:28:24.515Z,265
2016-07-11T14:29:24.477Z,250
2016-07-11T14:30:29.503Z,215
2016-07-11T14:31:26.429Z,225
2016-07-11T14:32:24.447Z,225
2016-07-11T14:33:34.535Z,275
2016-07-11T14:34:35.518Z,285
2016-07-11T14:35:24.528Z,290
2016-07-11T14:36:26.669Z,290
2016-07-11T14:37:24.973Z,240
2016-07-11T14:38:24.417Z,215
2016-07-11T14:39:24.431Z,225
2016-07-11T14:40:24.471Z,230
2016-07-11T14:41:24.480Z,200
2016-07-11T14:42:26.662Z,170
2016-07-11T14:43:28.212Z,155
2016-07-11T14:44:24.469Z,140
2016-07-11T14:45:30.248Z,145
2016-07-11T14:46:27.196Z,165
2016-07-11T14:47:24.525Z,175
2016-07-11T14:48:34.555Z,220
2016-07-11T14:49:30.294Z,240
2016-07-11T14:50:46.504Z,240
2016-07-11T14:51:32.795Z,260
2016-07-11T14:52:27.394Z,270
2016-07-11T14:53:29.393Z,260
2016-07-11T14:54:24.465Z,260
2016-07-11T14:55:24.477Z,255
2016-07-11T14:56:24.522Z,275
2016-07-11T14:57:26.747Z,290